createdAt,value
2023-05-19T00:00:10.337Z,2.57
2023-05-19T00:03:14.106Z,1.70
2023-05-19T00:06:19.858Z,1.30
2023-05-19T00:09:23.966Z,1.60
2023-05-19T00:12:28.464Z,1.88
2023-05-19T00:15:32.461Z,1.43
2023-05-19T00:18:36.455Z,1.40
2023-05-19T00:21:40.770Z,1.45
2023-05-19T00:24:44.971Z,1.30
2023-05-19T00:27:48.691Z,1.90
2023-05-19T00:30:52.932Z,1.53
2023-05-19T00:33:56.692Z,1.00
2023-05-19T00:37:03.497Z,1.30
2023-05-19T00:40:07.981Z,1.20
2023-05-19T00:43:12.092Z,1.40
2023-05-19T00:46:16.682Z,1.10
2023-05-19T00:49:20.776Z,1.77
2023-05-19T00:52:24.430Z,1.30
2023-05-19T00:55:30.657Z,1.10
2023-05-19T00:58:36.910Z,3.50
2023-05-19T01:01:40.986Z,1.03
2023-05-19T01:04:45.934Z,1.40
2023-05-19T01:07:54.451Z,1.52
2023-05-19T01:10:58.339Z,2.60
2023-05-19T01:14:02.478Z,1.83
2023-05-19T01:17:15.796Z,1.40
2023-05-19T01:20:47.282Z,1.47
2023-05-19T01:24:06.161Z,1.30
2023-05-19T01:27:33.285Z,1.90
2023-05-19T01:30:40.072Z,1.58
2023-05-19T01:33:46.005Z,1.60
2023-05-19T01:36:51.978Z,1.30
2023-05-19T01:39:57.004Z,1.75
2023-05-19T01:43:02.596Z,2.05
2023-05-19T01:46:08.606Z,2.25
2023-05-19T01:49:12.685Z,1.60
2023-05-19T01:52:16.588Z,1.47
2023-05-19T01:55:20.497Z,1.38
2023-05-19T01:58:30.155Z,1.30
2023-05-19T02:01:55.941Z,1.75
2023-05-19T02:05:09.002Z,1.30
2023-05-19T02:08:17.688Z,1.57
2023-05-19T02:11:24.060Z,2.10
2023-05-19T02:14:50.130Z,1.23
2023-05-19T02:17:56.704Z,1.08
2023-05-19T02:21:00.608Z,1.15
2023-05-19T02:24:04.969Z,1.43
2023-05-19T02:27:08.722Z,1.10
2023-05-19T02:30:13.263Z,1.30
2023-05-19T02:33:16.281Z,1.20
2023-05-19T02:36:19.717Z,1.43
2023-05-19T02:39:23.401Z,1.40
2023-05-19T02:42:27.642Z,1.08
2023-05-19T02:45:30.667Z,1.42
2023-05-19T02:48:34.436Z,1.40
2023-05-19T02:51:39.630Z,1.60
2023-05-19T02:54:42.760Z,2.10
2023-05-19T02:57:46.486Z,1.85
2023-05-19T03:00:49.616Z,1.95
2023-05-19T03:03:53.759Z,2.35
2023-05-19T03:07:01.023Z,2.10
2023-05-19T03:10:07.587Z,3.17
2023-05-19T03:13:11.898Z,2.35
2023-05-19T03:16:15.948Z,1.60
2023-05-19T03:19:19.276Z,2.40
2023-05-19T03:22:23.296Z,1.57
2023-05-19T03:25:26.707Z,2.20
2023-05-19T03:28:30.752Z,1.77
2023-05-19T03:31:33.902Z,1.75
2023-05-19T03:34:37.613Z,2.05
2023-05-19T03:37:40.627Z,1.90
2023-05-19T03:40:44.878Z,2.10
2023-05-19T03:43:48.706Z,1.85
2023-05-19T03:46:52.047Z,2.15
2023-05-19T03:50:15.658Z,1.58
2023-05-19T03:53:30.907Z,1.80
2023-05-19T03:56:34.311Z,1.63
2023-05-19T03:59:38.405Z,1.60
2023-05-19T04:02:41.841Z,1.77
2023-05-19T04:05:45.722Z,1.38
2023-05-19T04:08:49.305Z,1.57
2023-05-19T04:11:52.297Z,2.03
2023-05-19T04:14:56.346Z,2.58
2023-05-19T04:18:00.941Z,2.67
2023-05-19T04:21:04.474Z,2.63
2023-05-19T04:24:08.297Z,2.67
2023-05-19T04:27:13.569Z,1.90
2023-05-19T04:30:22.877Z,1.75
2023-05-19T04:33:26.588Z,2.00
2023-05-19T04:36:29.602Z,2.03
2023-05-19T04:39:33.041Z,1.60
2023-05-19T04:42:36.209Z,2.30
2023-05-19T04:45:43.415Z,1.80
2023-05-19T04:48:48.263Z,1.50
2023-05-19T04:51:55.555Z,1.70
2023-05-19T04:55:04.785Z,2.20
2023-05-19T04:58:09.058Z,1.60
2023-05-19T05:01:14.451Z,1.65
2023-05-19T05:04:19.077Z,1.83
2023-05-19T05:07:23.446Z,1.95
2023-05-19T05:10:29.173Z,1.50
2023-05-19T05:13:33.317Z,1.57
2023-05-19T05:16:38.177Z,1.60
2023-05-19T05:19:44.486Z,1.70
2023-05-19T05:22:48.780Z,1.52
2023-05-19T05:25:52.943Z,1.90
2023-05-19T05:28:57.178Z,2.47
2023-05-19T05:32:01.388Z,1.65
2023-05-19T05:35:06.082Z,1.58
2023-05-19T05:38:11.983Z,2.92
2023-05-19T05:41:17.136Z,1.97
2023-05-19T05:44:22.624Z,2.20
2023-05-19T05:47:27.753Z,1.90
2023-05-19T05:50:31.889Z,2.05
2023-05-19T05:53:42.747Z,2.28
2023-05-19T05:56:48.323Z,1.87
2023-05-19T05:59:53.660Z,1.87
2023-05-19T06:02:57.833Z,1.88
2023-05-19T06:06:02.478Z,1.77
2023-05-19T06:09:05.574Z,1.77
2023-05-19T06:12:09.164Z,1.70
2023-05-19T06:15:38.201Z,1.60
2023-05-19T06:18:56.057Z,2.33
2023-05-19T06:21:59.295Z,1.67
2023-05-19T06:25:02.624Z,1.77
2023-05-19T06:28:05.808Z,1.60
2023-05-19T06:31:09.247Z,2.87
2023-05-19T06:34:41.375Z,2.00
2023-05-19T06:37:45.073Z,1.52
2023-05-19T06:40:49.214Z,1.80
2023-05-19T06:43:52.782Z,2.17
2023-05-19T06:46:58.107Z,1.93
2023-05-19T06:50:01.623Z,2.10
2023-05-19T06:53:10.416Z,2.00
2023-05-19T06:56:15.586Z,1.90
2023-05-19T06:59:22.385Z,2.20
2023-05-19T07:02:27.203Z,2.00
2023-05-19T07:05:30.388Z,2.25
2023-05-19T07:08:37.673Z,1.95
2023-05-19T07:11:43.330Z,2.10
2023-05-19T07:14:47.237Z,2.50
2023-05-19T07:17:52.181Z,1.90
2023-05-19T07:20:55.458Z,2.40
2023-05-19T07:23:58.525Z,2.25
2023-05-19T07:27:04.504Z,2.95
2023-05-19T07:30:11.541Z,2.40
2023-05-19T07:33:14.544Z,2.10
2023-05-19T07:36:17.714Z,2.38
2023-05-19T07:39:21.252Z,3.38
2023-05-19T07:42:24.977Z,2.78
2023-05-19T07:45:28.975Z,2.80
2023-05-19T07:48:33.423Z,2.50
2023-05-19T07:51:37.431Z,2.60
2023-05-19T07:54:41.738Z,2.88
2023-05-19T07:57:45.532Z,2.70
2023-05-19T08:00:49.234Z,3.40
2023-05-19T08:03:53.373Z,2.70
2023-05-19T08:06:57.115Z,2.55
2023-05-19T08:10:01.080Z,2.40
2023-05-19T08:13:05.743Z,2.47
2023-05-19T08:16:09.910Z,2.30
2023-05-19T08:19:13.732Z,4.53
2023-05-19T08:22:17.877Z,3.17
2023-05-19T08:25:21.722Z,2.10
2023-05-19T08:28:25.859Z,5.43
2023-05-19T08:31:30.150Z,2.53
2023-05-19T08:34:34.350Z,3.00
2023-05-19T08:37:38.698Z,2.47
2023-05-19T08:40:43.702Z,2.72
2023-05-19T08:43:47.490Z,4.05
2023-05-19T08:46:55.565Z,3.33
2023-05-19T08:50:11.550Z,2.87
2023-05-19T08:53:33.946Z,3.70
2023-05-19T08:56:39.702Z,3.92
2023-05-19T08:59:45.215Z,3.55
2023-05-19T09:03:00.855Z,4.47
2023-05-19T09:06:10.227Z,3.90
2023-05-19T09:09:14.255Z,3.70
2023-05-19T09:12:18.323Z,4.45
2023-05-19T09:15:27.234Z,4.45
2023-05-19T09:18:31.270Z,6.33
2023-05-19T09:21:35.116Z,6.57
2023-05-19T09:24:41.353Z,4.32
2023-05-19T09:27:45.066Z,3.70
2023-05-19T09:30:49.150Z,4.63
2023-05-19T09:33:54.558Z,5.73
2023-05-19T09:37:00.853Z,6.90
2023-05-19T09:40:05.972Z,5.07
2023-05-19T09:43:09.998Z,4.85
2023-05-19T09:46:14.920Z,4.57
2023-05-19T09:49:25.533Z,4.13
2023-05-19T09:52:29.075Z,3.80
2023-05-19T09:55:34.366Z,4.60
2023-05-19T09:58:39.570Z,4.93
2023-05-19T10:01:47.428Z,3.88
2023-05-19T10:04:53.117Z,4.50
2023-05-19T10:07:57.239Z,3.60
2023-05-19T10:11:01.584Z,3.65
2023-05-19T10:14:06.258Z,3.35
2023-05-19T10:17:11.282Z,4.47
2023-05-19T10:20:17.140Z,5.07
2023-05-19T10:23:21.113Z,5.40
2023-05-19T10:26:27.143Z,4.72
2023-05-19T10:29:35.163Z,4.43
2023-05-19T10:32:41.376Z,5.70
2023-05-19T10:36:10.329Z,4.10
2023-05-19T10:39:39.074Z,4.03
2023-05-19T10:43:03.172Z,3.72
2023-05-19T10:46:07.330Z,4.20
2023-05-19T10:49:10.416Z,4.93
2023-05-19T10:52:28.031Z,4.70
2023-05-19T10:55:57.050Z,3.90
2023-05-19T10:59:02.198Z,3.75
2023-05-19T11:02:08.057Z,5.22
2023-05-19T11:05:19.152Z,4.35
2023-05-19T11:08:53.350Z,3.80
2023-05-19T11:12:03.926Z,3.93
2023-05-19T11:15:09.002Z,4.22
2023-05-19T11:18:17.215Z,3.70
2023-05-19T11:21:21.638Z,3.78
2023-05-19T11:24:51.151Z,4.33
2023-05-19T11:27:56.072Z,4.50
2023-05-19T11:31:00.959Z,3.67
2023-05-19T11:34:07.528Z,3.90
2023-05-19T11:37:10.677Z,3.33
2023-05-19T11:40:16.403Z,4.50
2023-05-19T11:43:19.427Z,3.93
2023-05-19T11:46:23.112Z,4.68
2023-05-19T11:49:26.421Z,3.33
2023-05-19T11:52:30.331Z,4.15
2023-05-19T11:55:33.507Z,3.60
2023-05-19T11:58:38.298Z,3.80
2023-05-19T12:01:41.666Z,3.53
2023-05-19T12:04:44.942Z,3.08
2023-05-19T12:07:50.631Z,3.47
2023-05-19T12:10:54.696Z,3.40
2023-05-19T12:14:02.390Z,3.80
2023-05-19T12:17:13.942Z,3.53
2023-05-19T12:20:21.003Z,3.50
2023-05-19T12:23:25.538Z,3.65
2023-05-19T12:26:28.998Z,3.53
2023-05-19T12:29:33.649Z,4.50
2023-05-19T12:32:37.354Z,3.90
2023-05-19T12:35:41.581Z,3.67
2023-05-19T12:38:46.269Z,3.42
2023-05-19T12:41:50.527Z,3.63
2023-05-19T12:44:56.683Z,3.70
2023-05-19T12:48:12.211Z,3.70
2023-05-19T12:51:20.713Z,3.40
2023-05-19T12:54:26.335Z,3.47
2023-05-19T12:57:32.678Z,3.43
2023-05-19T13:00:46.138Z,4.07
2023-05-19T13:03:49.681Z,4.70
2023-05-19T13:06:53.873Z,4.68
2023-05-19T13:10:21.909Z,5.80
2023-05-19T13:17:01.723Z,7.50
2023-05-19T13:20:30.277Z,9.68
2023-05-19T13:23:33.756Z,8.50
2023-05-19T13:26:37.085Z,5.38
2023-05-19T13:29:40.423Z,6.43
2023-05-19T13:32:44.925Z,6.13
2023-05-19T13:35:50.038Z,6.78
2023-05-19T13:38:54.798Z,7.22
2023-05-19T13:41:59.575Z,7.20
2023-05-19T13:45:03.696Z,7.10
2023-05-19T13:48:08.126Z,8.30
2023-05-19T13:51:11.637Z,7.22
2023-05-19T13:54:15.122Z,7.03
2023-05-19T13:57:18.523Z,6.60
2023-05-19T14:00:23.333Z,6.20
2023-05-19T14:03:27.960Z,6.97
2023-05-19T14:06:32.340Z,7.15
2023-05-19T14:09:35.553Z,6.93
2023-05-19T14:12:54.986Z,6.13
2023-05-19T14:16:03.331Z,6.23
2023-05-19T14:19:06.666Z,6.10
2023-05-19T14:22:11.247Z,6.47
2023-05-19T14:25:14.861Z,6.07
2023-05-19T14:28:18.674Z,5.28
2023-05-19T14:31:22.751Z,5.37
2023-05-19T14:37:54.774Z,4.60
2023-05-19T14:40:59.514Z,4.53
2023-05-19T14:44:02.792Z,4.30
2023-05-19T14:47:08.446Z,3.60
2023-05-19T14:50:12.841Z,3.87
2023-05-19T14:53:16.845Z,3.38
2023-05-19T14:56:22.787Z,3.70
2023-05-19T14:59:26.748Z,3.72
2023-05-19T15:02:30.468Z,3.80
2023-05-19T15:05:34.224Z,3.00
2023-05-19T15:08:38.760Z,3.30
2023-05-19T15:11:42.686Z,3.08
2023-05-19T15:14:46.277Z,3.30
2023-05-19T15:17:50.924Z,3.43
2023-05-19T15:20:54.450Z,3.20
2023-05-19T15:23:58.275Z,3.33
2023-05-19T15:27:03.800Z,3.85
2023-05-19T15:30:09.132Z,3.83
2023-05-19T15:33:13.072Z,3.23
2023-05-19T15:36:17.375Z,4.00
2023-05-19T15:39:21.918Z,4.07
2023-05-19T15:42:27.093Z,3.45
2023-05-19T15:45:30.387Z,3.70
2023-05-19T15:48:33.746Z,3.90
2023-05-19T15:51:39.327Z,3.70
2023-05-19T15:54:43.132Z,4.80
2023-05-19T15:57:47.123Z,3.75
2023-05-19T16:00:50.961Z,3.92
2023-05-19T16:03:56.705Z,3.80
2023-05-19T16:07:00.215Z,3.80
2023-05-19T16:10:04.503Z,3.63
2023-05-19T16:13:08.473Z,4.28
2023-05-19T16:16:13.256Z,4.13
2023-05-19T16:19:17.042Z,4.10
2023-05-19T16:22:25.301Z,4.13
2023-05-19T16:25:30.156Z,4.32
2023-05-19T16:28:33.531Z,4.00
2023-05-19T16:31:37.394Z,4.13
2023-05-19T16:34:42.781Z,3.90
2023-05-19T16:37:46.227Z,3.83
2023-05-19T16:40:49.513Z,4.25
2023-05-19T16:43:52.913Z,3.75
2023-05-19T16:46:56.446Z,3.72
2023-05-19T16:50:00.368Z,4.20
2023-05-19T16:53:04.372Z,4.10
2023-05-19T16:56:09.137Z,4.38
2023-05-19T16:59:13.191Z,3.90
2023-05-19T17:02:17.897Z,3.80
2023-05-19T17:05:22.040Z,4.67
2023-05-19T17:08:27.807Z,5.60
2023-05-19T17:11:32.230Z,5.97
2023-05-19T17:14:36.957Z,6.22
2023-05-19T17:17:41.002Z,6.50
2023-05-19T17:20:47.009Z,6.50
2023-05-19T17:23:51.543Z,6.83
2023-05-19T17:26:57.050Z,6.43
2023-05-19T17:30:01.280Z,6.18
2023-05-19T17:33:06.070Z,6.53
2023-05-19T17:36:10.759Z,5.70
2023-05-19T17:39:17.712Z,6.27
2023-05-19T17:42:22.326Z,6.03
2023-05-19T17:45:28.636Z,5.57
2023-05-19T17:48:32.333Z,5.95
2023-05-19T17:51:36.589Z,5.17
2023-05-19T17:54:41.101Z,5.13
2023-05-19T17:57:46.637Z,5.65
2023-05-19T18:00:51.962Z,5.55
2023-05-19T18:03:56.946Z,5.57
2023-05-19T18:07:03.643Z,5.80
2023-05-19T18:10:11.456Z,5.90
2023-05-19T18:13:15.186Z,6.05
2023-05-19T18:16:19.656Z,5.93
2023-05-19T18:19:23.913Z,5.70
2023-05-19T18:22:28.615Z,5.73
2023-05-19T18:25:32.817Z,5.67
2023-05-19T18:28:37.419Z,4.50
2023-05-19T18:31:41.905Z,4.63
2023-05-19T18:34:46.930Z,4.07
2023-05-19T18:37:53.030Z,3.60
2023-05-19T18:40:57.773Z,3.93
2023-05-19T18:44:02.098Z,4.10
2023-05-19T18:47:07.214Z,3.80
2023-05-19T18:50:12.701Z,3.75
2023-05-19T18:53:16.203Z,3.80
2023-05-19T18:56:29.855Z,3.60
2023-05-19T18:59:33.847Z,3.85
2023-05-19T19:02:39.228Z,4.10
2023-05-19T19:05:55.997Z,4.13
2023-05-19T19:08:59.357Z,3.97
2023-05-19T19:12:03.501Z,4.53
2023-05-19T19:15:07.476Z,5.22
2023-05-19T19:18:10.756Z,4.45
2023-05-19T19:21:14.076Z,5.57
2023-05-19T19:24:18.663Z,5.13
2023-05-19T19:27:22.043Z,4.73
2023-05-19T19:30:26.639Z,5.68
2023-05-19T19:33:30.518Z,5.30
2023-05-19T19:36:33.745Z,5.18
2023-05-19T19:39:38.885Z,5.10
2023-05-19T19:42:43.142Z,6.40
2023-05-19T19:45:47.034Z,7.50
2023-05-19T19:48:51.290Z,6.35
2023-05-19T19:51:55.197Z,5.97
2023-05-19T19:54:59.635Z,6.10
2023-05-19T19:58:03.588Z,5.90
2023-05-19T20:01:08.807Z,6.00
2023-05-19T20:04:12.910Z,5.47
2023-05-19T20:07:20.599Z,6.43
2023-05-19T20:10:24.400Z,6.37
2023-05-19T20:13:29.981Z,6.40
2023-05-19T20:16:36.598Z,6.07
2023-05-19T20:19:40.864Z,5.70
2023-05-19T20:22:47.594Z,6.07
2023-05-19T20:26:10.268Z,5.53
2023-05-19T20:29:15.146Z,5.37
2023-05-19T20:32:19.115Z,5.18
2023-05-19T20:35:23.159Z,9.82
2023-05-19T20:38:26.924Z,15.75
2023-05-19T20:41:30.539Z,8.90
2023-05-19T20:44:34.692Z,11.47
2023-05-19T20:47:38.695Z,5.20
2023-05-19T20:50:42.818Z,5.65
2023-05-19T20:53:46.546Z,4.65
2023-05-19T20:56:52.244Z,4.27
2023-05-19T20:59:55.254Z,4.70
2023-05-19T21:02:58.681Z,4.90
2023-05-19T21:06:02.498Z,4.30
2023-05-19T21:09:07.639Z,4.63
2023-05-19T21:12:11.176Z,3.80
2023-05-19T21:15:15.437Z,3.83
2023-05-19T21:18:19.068Z,4.10
2023-05-19T21:21:23.083Z,3.67
2023-05-19T21:24:27.152Z,3.97
2023-05-19T21:27:33.378Z,3.80
2023-05-19T21:30:36.992Z,4.13
2023-05-19T21:33:40.696Z,3.90
2023-05-19T21:36:44.432Z,3.80
2023-05-19T21:39:48.341Z,3.92
2023-05-19T21:42:52.033Z,3.67
2023-05-19T21:45:55.962Z,3.40
2023-05-19T21:48:59.726Z,3.90
2023-05-19T21:52:03.844Z,3.33
2023-05-19T21:55:08.508Z,3.75
2023-05-19T21:58:12.567Z,3.80
2023-05-19T22:01:16.285Z,4.17
2023-05-19T22:04:21.011Z,3.70
2023-05-19T22:07:27.383Z,3.65
2023-05-19T22:10:31.462Z,3.65
2023-05-19T22:13:35.760Z,4.07
2023-05-19T22:16:39.879Z,4.50
2023-05-19T22:19:43.571Z,4.00
2023-05-19T22:22:47.640Z,4.90
2023-05-19T22:25:51.590Z,6.88
2023-05-19T22:28:56.350Z,3.87
2023-05-19T22:32:00.159Z,3.57
2023-05-19T22:35:04.309Z,4.63
2023-05-19T22:38:10.271Z,4.18
2023-05-19T22:41:14.700Z,4.70
2023-05-19T22:44:20.098Z,4.03
2023-05-19T22:47:24.659Z,4.53
2023-05-19T22:50:28.355Z,3.70
2023-05-19T22:53:32.392Z,3.45
2023-05-19T22:56:35.948Z,3.13
2023-05-19T22:59:39.659Z,3.50
2023-05-19T23:02:43.372Z,3.20
2023-05-19T23:05:47.384Z,3.70
2023-05-19T23:09:00.061Z,3.35
2023-05-19T23:12:04.144Z,3.90
2023-05-19T23:15:10.106Z,3.63
2023-05-19T23:18:15.980Z,3.47
2023-05-19T23:21:20.006Z,3.75
2023-05-19T23:24:24.020Z,3.80
2023-05-19T23:27:27.632Z,3.38
2023-05-19T23:30:32.292Z,3.85
2023-05-19T23:33:36.054Z,3.43
2023-05-19T23:36:39.649Z,3.47
2023-05-19T23:39:43.703Z,3.08
2023-05-19T23:42:47.733Z,2.90
2023-05-19T23:45:51.511Z,2.90
2023-05-19T23:48:55.207Z,2.97
2023-05-19T23:51:58.895Z,3.22
2023-05-19T23:55:04.444Z,2.83
2023-05-19T23:58:08.157Z,2.70
